• Join FlightAware (Why Join?)
  • Login
  • US Flag 
02:23PM EDT


 

Airport Tracker/Info


-or-


 

Live Flight TrackerFlight Track Log ✈ EXS224 ✈ 04-May-2012 ✈ GCTS / TFS - EGNM / LBA

Flight Track Log - Related Links

Times and Time Zones

All times are in EDT time to prevent confusion due to time zone crossing. See the EXS224 flight status page for this flight to view local times or setup timezone preferences in your user account.

Time Position Orientation Groundspeed Altitude Reporting Facility
EDT Latitude Longitude Course Direction KTS MPH feet Rate Location/Type
04:45PM 29.1769 -16.1299 19° North  Level Estimated
04:46PM 29.2873 -16.0862 19° North  Level Estimated
04:47PM 29.3977 -16.0424 19° North  Level Estimated
04:48PM 29.5081 -15.9985 19° North  Level Estimated
04:49PM 29.6185 -15.9545 19° North  Level Estimated
04:50PM 29.7288 -15.9104 19° North  Level Estimated
04:51PM 29.8391 -15.8662 19° North  Level Estimated
04:52PM 29.9495 -15.8219 19° North  Level Estimated
04:53PM 30.0598 -15.7776 19° North  Level Estimated
04:54PM 30.1700 -15.7331 19° North  Level Estimated
04:55PM 30.2803 -15.6885 19° North  Level Estimated
04:56PM 30.3906 -15.6439 19° North  Level Estimated
04:57PM 30.5008 -15.5991 19° North  Level Estimated
04:58PM 30.6110 -15.5542 19° North  Level Estimated
04:59PM 30.7213 -15.5092 19° North  Level Estimated
05:00PM 30.8315 -15.4641 19° North  Level Estimated
05:01PM 30.9416 -15.4189 19° North  Level Estimated
05:02PM 31.0518 -15.3736 19° North  Level Estimated
05:03PM 31.1620 -15.3282 19° North  Level Estimated
05:04PM 31.2721 -15.2828 19° North  Level Estimated
05:05PM 31.3822 -15.2371 19° North  Level Estimated
05:06PM 31.4923 -15.1914 20° North  Level Estimated
05:07PM 31.6024 -15.1456 20° North  Level Estimated
05:08PM 31.7125 -15.0997 20° North  Level Estimated
05:09PM 31.8225 -15.0536 20° North  Level Estimated
05:10PM 31.9326 -15.0075 20° North  Level Estimated
05:11PM 32.0426 -14.9612 20° North  Level Estimated
05:12PM 32.1526 -14.9149 20° North  Level Estimated
05:13PM 32.2626 -14.8684 20° North  Level Estimated
05:14PM 32.3725 -14.8218 20° North  Level Estimated
05:15PM 32.4825 -14.7751 20° North  Level Estimated
05:16PM 32.5924 -14.7282 20° North  Level Estimated
05:17PM 32.7023 -14.6813 20° North  Level Estimated
05:18PM 32.8122 -14.6342 20° North  Level Estimated
05:19PM 32.9221 -14.5871 20° North  Level Estimated
05:20PM 33.0320 -14.5398 20° North  Level Estimated
05:21PM 33.1418 -14.4924 20° North  Level Estimated
05:22PM 33.2516 -14.4448 20° North  Level Estimated
05:23PM 33.3614 -14.3972 20° North  Level Estimated
05:24PM 33.4712 -14.3494 20° North  Level Estimated
05:25PM 33.5810 -14.3015 20° North  Level Estimated
05:26PM 33.6908 -14.2535 20° North  Level Estimated
05:27PM 33.8005 -14.2054 20° North  Level Estimated
05:28PM 33.9102 -14.1572 20° North  Level Estimated
05:29PM 34.0199 -14.1088 20° North  Level Estimated
05:30PM 34.1296 -14.0603 20° North  Level Estimated
05:31PM 34.2393 -14.0116 20° North  Level Estimated
05:32PM 34.3489 -13.9629 20° North  Level Estimated
05:33PM 34.4585 -13.9140 20° North  Level Estimated
05:34PM 34.5681 -13.8650 20° North  Level Estimated
05:35PM 34.6777 -13.8158 20° North  Level Estimated
05:36PM 34.7873 -13.7666 20° North  Level Estimated
05:37PM 34.8968 -13.7172 20° North  Level Estimated
05:38PM 35.0063 -13.6676 20° North  Level Estimated
05:39PM 35.1158 -13.6180 20° North  Level Estimated
05:40PM 35.2253 -13.5682 20° North  Level Estimated
05:41PM 35.3348 -13.5182 20° North  Level Estimated
05:42PM 35.4442 -13.4682 20° North  Level Estimated
05:43PM 35.5536 -13.4179 21° North  Level Estimated
05:44PM 35.6630 -13.3676 21° North  Level Estimated
05:45PM 35.7724 -13.3171 21° North  Level Estimated
05:46PM 35.8818 -13.2665 21° North  Level Estimated
05:47PM 35.9911 -13.2157 21° North  Level Estimated
05:48PM 36.1004 -13.1648 21° North  Level Estimated
05:49PM 36.2097 -13.1138 21° North  Level Estimated
05:50PM 36.3190 -13.0626 21° North  Level Estimated
05:51PM 36.4282 -13.0112 21° North  Level Estimated
05:52PM 36.5374 -12.9598 21° North  Level Estimated
05:53PM 36.6466 -12.9081 21° North  Level Estimated
05:54PM 36.7558 -12.8564 21° North  Level Estimated
05:55PM 36.8650 -12.8045 21° North  Level Estimated
05:56PM 36.9741 -12.7524 21° North  Level Estimated
05:57PM 37.0832 -12.7002 21° North  Level Estimated
05:58PM 37.1923 -12.6478 21° North  Level Estimated
05:59PM 37.3014 -12.5953 21° North  Level Estimated
06:00PM 37.4104 -12.5426 21° North  Level Estimated
06:01PM 37.5195 -12.4898 21° North  Level Estimated
06:02PM 37.6285 -12.4368 21° North  Level Estimated
06:03PM 37.7374 -12.3837 21° North  Level Estimated
06:04PM 37.8464 -12.3304 21° North  Level Estimated
06:05PM 37.9553 -12.2769 21° North  Level Estimated
06:06PM 38.0642 -12.2233 21° North  Level Estimated
06:07PM 38.1731 -12.1696 21° North  Level Estimated
06:08PM 38.2819 -12.1156 21° North  Level Estimated
06:09PM 38.3908 -12.0615 21° North  Level Estimated
06:10PM 38.4996 -12.0073 21° North  Level Estimated
06:11PM 38.6083 -11.9529 21° North  Level Estimated
06:12PM 38.7171 -11.8983 21° North  Level Estimated
06:13PM 38.8258 -11.8435 21° North  Level Estimated
06:14PM 38.9345 -11.7886 21° North  Level Estimated
06:15PM 39.0432 -11.7335 22° Northeast  Level Estimated
06:16PM 39.1519 -11.6783 22° Northeast  Level Estimated
06:17PM 39.2605 -11.6229 22° Northeast  Level Estimated
06:18PM 39.3691 -11.5673 22° Northeast  Level Estimated
06:19PM 39.4776 -11.5115 22° Northeast  Level Estimated
06:20PM 39.5862 -11.4556 22° Northeast  Level Estimated
06:21PM 39.6947 -11.3994 22° Northeast  Level Estimated
06:22PM 39.8032 -11.3431 22° Northeast  Level Estimated
06:23PM 39.9117 -11.2867 22° Northeast  Level Estimated
06:24PM 40.0201 -11.2300 22° Northeast  Level Estimated
06:25PM 40.1285 -11.1732 22° Northeast  Level Estimated
06:26PM 40.2369 -11.1162 22° Northeast  Level Estimated
06:27PM 40.3452 -11.0590 22° Northeast  Level Estimated
06:28PM 40.4535 -11.0016 22° Northeast  Level Estimated
06:29PM 40.5618 -10.9440 22° Northeast  Level Estimated
06:30PM 40.6701 -10.8863 22° Northeast  Level Estimated
06:31PM 40.7784 -10.8283 22° Northeast  Level Estimated
06:32PM 40.8866 -10.7702 22° Northeast  Level Estimated
06:33PM 40.9947 -10.7119 22° Northeast  Level Estimated
06:34PM 41.1029 -10.6534 22° Northeast  Level Estimated
06:35PM 41.2110 -10.5947 22° Northeast  Level Estimated
06:36PM 41.3191 -10.5358 22° Northeast  Level Estimated
06:37PM 41.4272 -10.4767 22° Northeast  Level Estimated
06:38PM 41.5352 -10.4174 22° Northeast  Level Estimated
06:39PM 41.6432 -10.3579 22° Northeast  Level Estimated
06:40PM 41.7512 -10.2982 22° Northeast  Level Estimated
06:41PM 41.8591 -10.2383 22° Northeast  Level Estimated
06:42PM 41.9670 -10.1782 23° Northeast  Level Estimated
06:43PM 42.0749 -10.1179 23° Northeast  Level Estimated
06:44PM 42.1827 -10.0574 23° Northeast  Level Estimated
06:45PM 42.2905 -9.9967 23° Northeast  Level Estimated
06:46PM 42.3983 -9.9358 23° Northeast  Level Estimated
06:47PM 42.5061 -9.8747 23° Northeast  Level Estimated
06:48PM 42.6138 -9.8133 23° Northeast  Level Estimated
06:49PM 42.7215 -9.7518 23° Northeast  Level Estimated
06:50PM 42.8291 -9.6900 23° Northeast  Level Estimated
06:51PM 42.9367 -9.6280 23° Northeast  Level Estimated
06:52PM 43.0443 -9.5658 23° Northeast  Level Estimated
06:53PM 43.1519 -9.5034 23° Northeast  Level Estimated
06:54PM 43.2594 -9.4408 23° Northeast  Level Estimated
06:55PM 43.3669 -9.3779 23° Northeast  Level Estimated
06:56PM 43.4743 -9.3148 23° Northeast  Level Estimated
06:57PM 43.5817 -9.2515 23° Northeast  Level Estimated
06:58PM 43.6891 -9.1880 23° Northeast  Level Estimated
06:59PM 43.7964 -9.1242 23° Northeast  Level Estimated
07:00PM 43.9037 -9.0602 23° Northeast  Level Estimated
07:01PM 44.0110 -8.9960 23° Northeast  Level Estimated
07:02PM 44.1182 -8.9316 23° Northeast  Level Estimated
07:03PM 44.2254 -8.8669 23° Northeast  Level Estimated
07:04PM 44.3326 -8.8019 23° Northeast  Level Estimated
07:05PM 44.4397 -8.7368 24° Northeast  Level Estimated
07:06PM 44.5468 -8.6714 24° Northeast  Level Estimated
07:07PM 44.6538 -8.6057 24° Northeast  Level Estimated
07:08PM 44.7608 -8.5399 24° Northeast  Level Estimated
07:09PM 44.8678 -8.4737 24° Northeast  Level Estimated
07:10PM 44.9748 -8.4073 24° Northeast  Level Estimated
07:11PM 45.0816 -8.3407 24° Northeast  Level Estimated
07:12PM 45.1885 -8.2739 24° Northeast  Level Estimated
07:13PM 45.2953 -8.2067 24° Northeast  Level Estimated
07:14PM 45.4021 -8.1393 24° Northeast  Level Estimated
07:15PM 45.5089 -8.0717 24° Northeast  Level Estimated
07:16PM 45.6156 -8.0038 24° Northeast  Level Estimated
07:17PM 45.7222 -7.9357 24° Northeast  Level Estimated
07:18PM 45.8288 -7.8673 24° Northeast  Level Estimated
07:19PM 45.9354 -7.7986 24° Northeast  Level Estimated
07:20PM 46.0419 -7.7297 24° Northeast  Level Estimated
07:21PM 46.1484 -7.6605 24° Northeast  Level Estimated
07:22PM 46.2549 -7.5910 24° Northeast  Level Estimated
07:23PM 46.3613 -7.5212 24° Northeast  Level Estimated
07:24PM 46.4677 -7.4512 24° Northeast  Level Estimated
07:25PM 46.5740 -7.3809 24° Northeast  Level Estimated
07:26PM 46.6803 -7.3104 25° Northeast  Level Estimated
07:27PM 46.7865 -7.2396 25° Northeast  Level Estimated
07:28PM 46.8927 -7.1684 25° Northeast  Level Estimated
07:29PM 46.9988 -7.0970 25° Northeast  Level Estimated
07:30PM 47.1049 -7.0253 25° Northeast  Level Estimated
07:31PM 47.2110 -6.9534 25° Northeast  Level Estimated
07:32PM 47.3170 -6.8811 25° Northeast  Level Estimated
07:33PM 47.4230 -6.8086 25° Northeast  Level Estimated
07:34PM 47.5289 -6.7357 25° Northeast  Level Estimated
07:35PM 47.6348 -6.6626 25° Northeast  Level Estimated
07:36PM 47.7406 -6.5891 25° Northeast  Level Estimated
07:37PM 47.8464 -6.5154 25° Northeast  Level Estimated
07:38PM 47.9521 -6.4413 25° Northeast  Level Estimated
07:39PM 48.0578 -6.3670 25° Northeast  Level Estimated
07:40PM 48.1634 -6.2924 25° Northeast  Level Estimated
07:41PM 48.2690 -6.2174 25° Northeast  Level Estimated
07:42PM 48.3746 -6.1421 25° Northeast  Level Estimated
07:43PM 48.4801 -6.0665 25° Northeast  Level Estimated
07:44PM 48.5855 -5.9907 26° Northeast  Level Estimated
07:45PM 48.6909 -5.9145 26° Northeast  Level Estimated
07:46PM 48.7962 -5.8379 26° Northeast  Level Estimated
07:47PM 48.9015 -5.7611 26° Northeast  Level Estimated
07:48PM 49.0068 -5.6839 26° Northeast  Level Estimated
07:49PM 49.1120 -5.6064 26° Northeast  Level Estimated
07:50PM 49.2171 -5.5286 26° Northeast  Level Estimated
07:51PM 49.3222 -5.4504 26° Northeast  Level Estimated
07:52PM 49.4272 -5.3719 26° Northeast  Level Estimated
07:53PM 49.5322 -5.2931 26° Northeast  Level Estimated
07:54PM 49.6371 -5.2139 26° Northeast  Level Estimated
07:55PM 49.7420 -5.1344 26° Northeast  Level Estimated
07:56PM 49.8468 -5.0545 26° Northeast  Level Estimated
07:57PM 49.9516 -4.9743 26° Northeast  Level Estimated
07:58PM 50.0563 -4.8937 26° Northeast  Level Estimated
07:59PM 50.1609 -4.8128 26° Northeast  Level Estimated
08:00PM 50.2655 -4.7316 26° Northeast  Level Estimated
08:01PM 50.3700 -4.6499 27° Northeast  Level Estimated
08:02PM 50.4745 -4.5679 27° Northeast  Level Estimated
08:03PM 50.5789 -4.4856 27° Northeast  Level Estimated
08:04PM 50.6833 -4.4029 27° Northeast  Level Estimated
08:05PM 50.7876 -4.3198 27° Northeast  Level Estimated
08:06PM 50.8918 -4.2364 27° Northeast  Level Estimated
08:07PM 50.9960 -4.1525 27° Northeast  Level Estimated
08:08PM 51.1001 -4.0683 27° Northeast  Level Estimated
08:09PM 51.2042 -3.9838 27° Northeast  Level Estimated
08:10PM 51.3082 -3.8988 27° Northeast  Level Estimated
08:11PM 51.4121 -3.8134 27° Northeast  Level Estimated
08:12PM 51.5160 -3.7277 27° Northeast  Level Estimated
08:13PM 51.6198 -3.6416 27° Northeast  Level Estimated
08:14PM 51.7236 -3.5550 27° Northeast  Level Estimated
08:15PM 51.8273 -3.4681 27° Northeast  Level Estimated
08:16PM 51.9309 -3.3808 28° Northeast  Level Estimated
08:17PM 52.0344 -3.2930 28° Northeast  Level Estimated
08:18PM 52.1379 -3.2049 28° Northeast  Level Estimated
08:19PM 52.2413 -3.1163 28° Northeast  Level Estimated
08:20PM 52.3447 -3.0274 28° Northeast  Level Estimated
08:21PM 52.4480 -2.9380 28° Northeast  Level Estimated
08:22PM 52.5512 -2.8482 28° Northeast  Level Estimated
08:23PM 52.6544 -2.7580 28° Northeast  Level Estimated
08:24PM 52.7575 -2.6673 28° Northeast  Level Estimated
08:25PM 52.8605 -2.5763 28° Northeast  Level Estimated
08:26PM 52.9635 -2.4848 28° Northeast  Level Estimated
08:27PM 53.0663 -2.3928 28° Northeast  Level Estimated
08:28PM 53.1691 -2.3004 28° Northeast  Level Estimated
08:29PM 53.2719 -2.2076 28° Northeast  Level Estimated
08:30PM 53.3745 -2.1143 28° Northeast  Level Estimated